createdAt,value
2023-04-09T00:00:56.645Z,9.55
2023-04-09T00:01:56.634Z,9.47
2023-04-09T00:02:56.780Z,9.48
2023-04-09T00:03:56.641Z,9.48
2023-04-09T00:04:57.543Z,9.49
2023-04-09T00:05:56.412Z,9.47
2023-04-09T00:06:56.367Z,9.47
2023-04-09T00:07:56.742Z,9.37
2023-04-09T00:08:56.275Z,9.42
2023-04-09T00:09:56.373Z,9.31
2023-04-09T00:10:56.180Z,9.34
2023-04-09T00:11:56.132Z,9.37
2023-04-09T00:12:56.086Z,9.30
2023-04-09T00:13:57.299Z,9.31
2023-04-09T00:14:55.996Z,9.26
2023-04-09T00:15:56.127Z,9.21
2023-04-09T00:16:55.902Z,9.13
2023-04-09T00:17:55.862Z,9.16
2023-04-09T00:18:55.892Z,9.05
2023-04-09T00:19:56.166Z,9.05
2023-04-09T00:20:55.902Z,9.12
2023-04-09T00:21:55.702Z,9.08
2023-04-09T00:22:55.639Z,8.99
2023-04-09T00:23:55.578Z,9.02
2023-04-09T00:24:55.662Z,8.97
2023-04-09T00:25:55.509Z,9.05
2023-04-09T00:26:55.678Z,9.02
2023-04-09T00:27:55.397Z,9.02
2023-04-09T00:28:55.524Z,8.99
2023-04-09T00:29:55.472Z,8.99
2023-04-09T00:30:55.262Z,8.97
2023-04-09T00:31:55.316Z,8.96
2023-04-09T00:32:55.193Z,8.90
2023-04-09T00:33:55.118Z,8.79
2023-04-09T00:34:55.093Z,8.78
2023-04-09T00:35:55.227Z,8.82
2023-04-09T00:36:54.978Z,8.78
2023-04-09T00:37:56.163Z,8.79
2023-04-09T00:38:54.985Z,8.78
2023-04-09T00:39:54.934Z,8.74
2023-04-09T00:40:54.988Z,8.71
2023-04-09T00:41:54.944Z,8.74
2023-04-09T00:42:54.718Z,8.71
2023-04-09T00:43:54.755Z,8.72
2023-04-09T00:44:54.611Z,8.61
2023-04-09T00:45:54.700Z,8.60
2023-04-09T00:46:54.546Z,8.71
2023-04-09T00:47:54.622Z,8.50
2023-04-09T00:48:54.623Z,8.49
2023-04-09T00:49:54.382Z,8.49
2023-04-09T00:50:54.335Z,8.49
2023-04-09T00:51:54.409Z,8.34
2023-04-09T00:52:54.462Z,8.45
2023-04-09T00:53:54.443Z,8.35
2023-04-09T00:54:54.147Z,8.31
2023-04-09T00:55:54.122Z,8.36
2023-04-09T00:56:54.241Z,8.31
2023-04-09T00:57:54.012Z,8.27
2023-04-09T00:58:55.083Z,8.27
2023-04-09T00:59:53.919Z,8.23
2023-04-09T01:00:53.994Z,8.16
2023-04-09T01:01:54.179Z,8.17
2023-04-09T01:02:53.825Z,8.18
2023-04-09T01:03:54.023Z,8.13
2023-04-09T01:04:53.679Z,8.13
2023-04-09T01:05:53.893Z,8.06
2023-04-09T01:06:53.588Z,8.03
2023-04-09T01:07:53.705Z,8.02
2023-04-09T01:08:53.733Z,7.93
2023-04-09T01:09:53.613Z,7.91
2023-04-09T01:10:53.414Z,8.02
2023-04-09T01:11:53.392Z,7.96
2023-04-09T01:12:53.534Z,7.93
2023-04-09T01:13:53.392Z,7.95
2023-04-09T01:14:53.371Z,7.88
2023-04-09T01:15:53.171Z,7.75
2023-04-09T01:16:53.350Z,7.74
2023-04-09T01:17:53.233Z,7.64
2023-04-09T01:18:53.421Z,7.74
2023-04-09T01:19:52.990Z,7.72
2023-04-09T01:20:53.190Z,7.62
2023-04-09T01:21:52.884Z,7.62
2023-04-09T01:22:52.842Z,7.58
2023-04-09T01:23:52.844Z,7.55
2023-04-09T01:24:52.751Z,7.51
2023-04-09T01:25:52.911Z,7.58
2023-04-09T01:26:52.674Z,7.50
2023-04-09T01:27:52.609Z,7.53
2023-04-09T01:28:52.702Z,7.53
2023-04-09T01:29:52.734Z,7.47
2023-04-09T01:30:52.501Z,7.51
2023-04-09T01:31:52.642Z,7.53
2023-04-09T01:32:52.643Z,7.43
2023-04-09T01:33:52.508Z,7.41
2023-04-09T01:34:52.282Z,7.41
2023-04-09T01:35:52.384Z,7.41
2023-04-09T01:36:52.194Z,7.32
2023-04-09T01:37:52.386Z,7.32
2023-04-09T01:38:52.417Z,7.33
2023-04-09T01:39:52.194Z,7.40
2023-04-09T01:40:51.999Z,7.32
2023-04-09T01:41:52.216Z,7.32
2023-04-09T01:42:51.919Z,7.33
2023-04-09T01:43:51.860Z,7.36
2023-04-09T01:44:51.981Z,7.26
2023-04-09T01:45:51.934Z,7.32
2023-04-09T01:46:51.718Z,7.28
2023-04-09T01:47:51.870Z,7.11
2023-04-09T01:48:51.880Z,7.19
2023-04-09T01:49:51.582Z,7.11
2023-04-09T01:50:51.682Z,7.13
2023-04-09T01:51:51.492Z,7.13
2023-04-09T01:52:51.684Z,7.01
2023-04-09T01:53:51.399Z,7.15
2023-04-09T01:54:51.343Z,7.07
2023-04-09T01:55:51.295Z,7.00
2023-04-09T01:56:51.710Z,6.97
2023-04-09T01:57:51.210Z,6.97
2023-04-09T01:58:52.594Z,6.92
2023-04-09T01:59:51.102Z,6.93
2023-04-09T02:00:51.088Z,6.90
2023-04-09T02:01:51.316Z,6.90
2023-04-09T02:02:51.085Z,6.89
2023-04-09T02:03:51.264Z,6.89
2023-04-09T02:04:50.871Z,6.89
2023-04-09T02:05:50.828Z,6.87
2023-04-09T02:06:50.907Z,6.96
2023-04-09T02:07:50.875Z,6.72
2023-04-09T02:08:50.920Z,6.83
2023-04-09T02:09:51.899Z,6.72
2023-04-09T02:10:50.589Z,6.72
2023-04-09T02:11:50.688Z,6.80
2023-04-09T02:12:50.506Z,6.85
2023-04-09T02:13:50.709Z,6.68
2023-04-09T02:14:50.762Z,6.71
2023-04-09T02:15:51.582Z,6.64
2023-04-09T02:16:50.420Z,6.59
2023-04-09T02:17:50.296Z,6.59
2023-04-09T02:18:50.624Z,6.57
2023-04-09T02:19:50.166Z,6.54
2023-04-09T02:20:50.348Z,6.54
2023-04-09T02:21:50.355Z,6.49
2023-04-09T02:22:50.029Z,6.43
2023-04-09T02:23:51.033Z,6.44
2023-04-09T02:24:49.929Z,6.49
2023-04-09T02:25:50.081Z,6.39
2023-04-09T02:26:50.139Z,6.39
2023-04-09T02:27:49.795Z,6.41
2023-04-09T02:28:50.046Z,6.44
2023-04-09T02:29:49.697Z,6.35
2023-04-09T02:30:49.962Z,6.44
2023-04-09T02:31:49.602Z,6.31
2023-04-09T02:32:49.637Z,6.41
2023-04-09T02:33:49.505Z,6.38
2023-04-09T02:34:49.645Z,6.31
2023-04-09T02:35:49.698Z,6.32
2023-04-09T02:36:49.647Z,6.25
2023-04-09T02:37:49.321Z,6.20
2023-04-09T02:38:49.521Z,6.13
2023-04-09T02:39:49.227Z,6.02
2023-04-09T02:40:49.263Z,6.10
2023-04-09T02:41:49.175Z,6.26
2023-04-09T02:42:49.284Z,6.20
2023-04-09T02:43:49.033Z,6.07
2023-04-09T02:44:49.093Z,6.13
2023-04-09T02:45:48.944Z,6.17
2023-04-09T02:46:49.447Z,6.25
2023-04-09T02:47:49.024Z,6.13
2023-04-09T02:48:48.821Z,6.12
2023-04-09T02:49:48.772Z,6.06
2023-04-09T02:50:48.829Z,6.13
2023-04-09T02:51:48.654Z,6.16
2023-04-09T02:52:48.850Z,6.22
2023-04-09T02:53:48.606Z,6.10
2023-04-09T02:54:48.515Z,6.17
2023-04-09T02:55:49.689Z,6.13
2023-04-09T02:56:48.427Z,6.02
2023-04-09T02:57:48.467Z,6.06
2023-04-09T02:58:48.327Z,6.05
2023-04-09T02:59:48.538Z,6.02
2023-04-09T03:00:48.243Z,5.97
2023-04-09T03:01:48.350Z,5.88
2023-04-09T03:02:48.213Z,5.99
2023-04-09T03:03:48.453Z,5.90
2023-04-09T03:04:48.036Z,5.94
2023-04-09T03:05:48.122Z,5.87
2023-04-09T03:06:48.002Z,5.97
2023-04-09T03:07:48.136Z,5.91
2023-04-09T03:08:49.418Z,5.90
2023-04-09T03:09:47.898Z,5.91
2023-04-09T03:10:47.752Z,5.83
2023-04-09T03:11:47.911Z,5.91
2023-04-09T03:12:47.668Z,5.83
2023-04-09T03:13:47.785Z,5.88
2023-04-09T03:14:47.573Z,5.79
2023-04-09T03:15:47.854Z,5.77
2023-04-09T03:16:47.475Z,5.79
2023-04-09T03:17:47.699Z,5.67
2023-04-09T03:18:47.378Z,5.69
2023-04-09T03:19:47.608Z,5.62
2023-04-09T03:20:47.279Z,5.67
2023-04-09T03:21:47.235Z,5.67
2023-04-09T03:22:47.204Z,5.69
2023-04-09T03:23:47.241Z,5.58
2023-04-09T03:24:47.280Z,5.55
2023-04-09T03:25:47.245Z,5.55
2023-04-09T03:26:47.253Z,5.58
2023-04-09T03:27:46.959Z,5.56
2023-04-09T03:28:47.078Z,5.58
2023-04-09T03:29:46.861Z,5.59
2023-04-09T03:30:47.184Z,5.58
2023-04-09T03:31:46.758Z,5.61
2023-04-09T03:32:46.724Z,5.56
2023-04-09T03:33:46.800Z,5.52
2023-04-09T03:34:46.613Z,5.49
2023-04-09T03:35:46.841Z,5.52
2023-04-09T03:36:46.532Z,5.51
2023-04-09T03:37:46.474Z,5.58
2023-04-09T03:38:46.428Z,5.58
2023-04-09T03:39:46.632Z,5.49
2023-04-09T03:40:46.329Z,5.59
2023-04-09T03:41:46.443Z,5.52
2023-04-09T03:42:46.511Z,5.56
2023-04-09T03:43:47.287Z,5.67
2023-04-09T03:44:46.139Z,5.76
2023-04-09T03:45:46.276Z,5.65
2023-04-09T03:46:46.074Z,5.69
2023-04-09T03:47:46.330Z,5.72
2023-04-09T03:48:46.100Z,5.77
2023-04-09T03:49:46.147Z,5.80
2023-04-09T03:50:46.116Z,5.77
2023-04-09T03:51:45.805Z,5.79
2023-04-09T03:52:46.013Z,5.80
2023-04-09T03:53:45.819Z,5.74
2023-04-09T03:54:45.667Z,5.90
2023-04-09T03:55:46.037Z,5.88
2023-04-09T03:56:45.574Z,5.90
2023-04-09T03:57:45.746Z,5.97
2023-04-09T03:58:45.477Z,6.02
2023-04-09T03:59:45.430Z,6.07
2023-04-09T04:00:45.655Z,5.99
2023-04-09T04:01:45.540Z,6.15
2023-04-09T04:02:45.635Z,6.15
2023-04-09T04:03:45.480Z,6.19
2023-04-09T04:04:45.249Z,6.28
2023-04-09T04:05:45.289Z,6.17
2023-04-09T04:06:45.091Z,6.22
2023-04-09T04:07:45.204Z,6.22
2023-04-09T04:08:46.275Z,6.25
2023-04-09T04:09:45.205Z,6.22
2023-04-09T04:10:44.899Z,6.25
2023-04-09T04:11:45.022Z,6.25
2023-04-09T04:12:44.814Z,6.20
2023-04-09T04:13:45.038Z,6.20
2023-04-09T04:14:44.724Z,6.16
2023-04-09T04:15:44.663Z,6.19
2023-04-09T04:16:44.646Z,6.26
2023-04-09T04:17:44.871Z,6.22
2023-04-09T04:18:44.528Z,6.26
2023-04-09T04:19:44.774Z,6.19
2023-04-09T04:20:44.431Z,6.25
2023-04-09T04:21:44.390Z,6.22
2023-04-09T04:22:44.591Z,6.25
2023-04-09T04:23:44.286Z,6.26
2023-04-09T04:24:44.498Z,6.25
2023-04-09T04:25:44.199Z,6.25
2023-04-09T04:26:44.469Z,6.16
2023-04-09T04:27:44.215Z,6.13
2023-04-09T04:28:44.044Z,6.17
2023-04-09T04:29:44.230Z,6.28
2023-04-09T04:30:43.953Z,6.25
2023-04-09T04:31:43.960Z,6.19
2023-04-09T04:32:44.176Z,6.09
2023-04-09T04:33:43.817Z,6.13
2023-04-09T04:34:44.370Z,6.12
2023-04-09T04:35:43.737Z,6.12
2023-04-09T04:36:43.874Z,6.16
2023-04-09T04:37:43.618Z,6.16
2023-04-09T04:38:43.695Z,6.16
2023-04-09T04:39:43.522Z,5.99
2023-04-09T04:40:43.696Z,6.02
2023-04-09T04:41:43.427Z,6.10
2023-04-09T04:42:43.384Z,6.02
2023-04-09T04:43:43.616Z,5.97
2023-04-09T04:44:43.294Z,5.88
2023-04-09T04:45:43.478Z,6.01
2023-04-09T04:46:44.413Z,5.95
2023-04-09T04:47:43.224Z,5.95
2023-04-09T04:48:43.093Z,5.94
2023-04-09T04:49:43.252Z,5.91
2023-04-09T04:50:43.005Z,5.88
2023-04-09T04:51:43.279Z,5.91
2023-04-09T04:52:42.951Z,5.76
2023-04-09T04:53:42.856Z,5.79
2023-04-09T04:54:43.089Z,5.73
2023-04-09T04:55:42.862Z,5.73
2023-04-09T04:56:42.903Z,5.74
2023-04-09T04:57:42.676Z,5.62
2023-04-09T04:58:42.961Z,5.64
2023-04-09T04:59:42.574Z,5.52
2023-04-09T05:00:42.757Z,5.56
2023-04-09T05:01:42.677Z,5.61
2023-04-09T05:02:42.747Z,5.58
2023-04-09T05:03:42.510Z,5.61
2023-04-09T05:04:42.547Z,5.51
2023-04-09T05:05:42.304Z,5.59
2023-04-09T05:06:42.557Z,5.61
2023-04-09T05:07:42.192Z,5.49
2023-04-09T05:08:42.263Z,5.65
2023-04-09T05:09:42.099Z,5.61
2023-04-09T05:10:42.281Z,5.70
2023-04-09T05:11:42.000Z,5.64
2023-04-09T05:12:42.192Z,5.62
2023-04-09T05:13:41.924Z,5.62
2023-04-09T05:14:41.854Z,5.62
2023-04-09T05:15:41.960Z,5.74
2023-04-09T05:16:41.968Z,5.65
2023-04-09T05:17:41.735Z,5.76
2023-04-09T05:18:41.928Z,5.73
2023-04-09T05:19:41.619Z,5.80
2023-04-09T05:20:41.739Z,5.95
2023-04-09T05:21:41.541Z,5.98
2023-04-09T05:22:42.779Z,6.02
2023-04-09T05:23:41.437Z,6.06
2023-04-09T05:24:41.570Z,6.10
2023-04-09T05:25:41.330Z,6.16
2023-04-09T05:26:41.472Z,6.20
2023-04-09T05:27:41.543Z,6.26
2023-04-09T05:28:41.507Z,6.26
2023-04-09T05:29:41.145Z,6.32
2023-04-09T05:30:41.138Z,6.43
2023-04-09T05:31:41.050Z,6.41
2023-04-09T05:32:42.140Z,6.39
2023-04-09T05:33:40.982Z,6.46
2023-04-09T05:34:41.225Z,6.57
2023-04-09T05:35:40.897Z,6.62
2023-04-09T05:36:41.060Z,6.59
2023-04-09T05:37:40.766Z,6.68
2023-04-09T05:38:40.847Z,6.78
2023-04-09T05:39:40.904Z,6.74
2023-04-09T05:40:41.901Z,6.77
2023-04-09T05:41:40.579Z,6.72
2023-04-09T05:42:40.776Z,6.82
2023-04-09T05:43:40.483Z,6.78
2023-04-09T05:44:40.507Z,6.90
2023-04-09T05:45:40.414Z,6.83
2023-04-09T05:46:40.350Z,6.87
2023-04-09T05:47:40.333Z,7.00
2023-04-09T05:48:41.543Z,7.07
2023-04-09T05:49:40.218Z,7.15
2023-04-09T05:50:53.490Z,7.19
2023-04-09T05:51:40.111Z,7.28
2023-04-09T05:52:40.235Z,7.26
2023-04-09T05:53:40.012Z,7.39
2023-04-09T05:54:40.068Z,7.39
2023-04-09T05:55:39.917Z,7.55
2023-04-09T05:56:40.060Z,7.53
2023-04-09T05:57:39.828Z,7.66
2023-04-09T05:58:39.873Z,7.75
2023-04-09T05:59:39.933Z,7.88
2023-04-09T06:03:47.962Z,8.02
2023-04-09T06:04:47.828Z,8.03
2023-04-09T06:05:47.723Z,8.03
2023-04-09T06:06:47.689Z,8.06
2023-04-09T06:07:47.625Z,8.08
2023-04-09T06:08:47.578Z,8.13
2023-04-09T06:09:47.532Z,8.14
2023-04-09T06:10:47.488Z,8.26
2023-04-09T06:11:47.439Z,8.18
2023-04-09T06:12:47.412Z,8.34
2023-04-09T06:13:47.344Z,8.36
2023-04-09T06:14:47.294Z,8.50
2023-04-09T06:15:47.272Z,8.45
2023-04-09T06:16:47.208Z,8.64
2023-04-09T06:17:47.213Z,8.50
2023-04-09T06:18:47.131Z,8.57
2023-04-09T06:19:47.090Z,8.59
2023-04-09T06:20:47.020Z,8.68
2023-04-09T06:21:46.967Z,8.72
2023-04-09T06:22:46.923Z,8.84
2023-04-09T06:23:46.909Z,8.79
2023-04-09T06:24:46.832Z,8.95
2023-04-09T06:25:46.795Z,9.05
2023-04-09T06:26:46.737Z,9.12
2023-04-09T06:27:46.694Z,9.24
2023-04-09T06:28:46.668Z,9.27
2023-04-09T06:29:46.596Z,9.34
2023-04-09T06:30:46.580Z,9.48
2023-04-09T06:31:46.531Z,9.59
2023-04-09T06:32:54.337Z,9.67
2023-04-09T06:33:46.415Z,9.70
2023-04-09T06:34:46.363Z,9.87
2023-04-09T06:35:46.329Z,9.87
2023-04-09T06:36:46.289Z,9.99
2023-04-09T06:37:46.241Z,10.05
2023-04-09T06:38:46.181Z,10.07
2023-04-09T06:40:00.024Z,10.15
2023-04-09T06:40:46.264Z,10.10
2023-04-09T06:41:46.050Z,10.07
2023-04-09T06:42:45.999Z,10.23
2023-04-09T06:43:45.951Z,10.24
2023-04-09T06:44:45.908Z,10.31
2023-04-09T06:45:45.870Z,10.28
2023-04-09T06:46:45.880Z,10.41
2023-04-09T06:47:45.818Z,10.53
2023-04-09T06:48:45.732Z,10.46
2023-04-09T06:49:45.680Z,10.64
2023-04-09T06:50:45.640Z,10.65
2023-04-09T06:51:45.587Z,10.68
2023-04-09T06:52:45.572Z,10.79
2023-04-09T06:53:45.555Z,10.87
2023-04-09T06:54:45.455Z,10.67
2023-04-09T06:55:45.407Z,10.76
2023-04-09T06:56:45.526Z,10.80
2023-04-09T06:57:45.341Z,10.79
2023-04-09T06:58:45.298Z,10.77
2023-04-09T06:59:45.228Z,10.86
2023-04-09T07:00:45.178Z,10.97
2023-04-09T07:01:45.198Z,10.90
2023-04-09T07:02:45.253Z,10.95
2023-04-09T07:03:45.130Z,10.94
2023-04-09T07:04:45.109Z,10.92
2023-04-09T07:05:44.972Z,10.98
2023-04-09T07:06:45.015Z,10.95
2023-04-09T07:07:44.873Z,11.08
2023-04-09T07:08:44.823Z,11.20
2023-04-09T07:09:44.774Z,11.22
2023-04-09T07:10:44.727Z,11.30
2023-04-09T07:11:44.684Z,11.33
2023-04-09T07:12:44.793Z,11.44
2023-04-09T07:13:44.610Z,11.51
2023-04-09T07:14:44.556Z,11.45
2023-04-09T07:15:44.546Z,11.48
2023-04-09T07:16:44.457Z,11.53
2023-04-09T07:17:44.468Z,11.51
2023-04-09T07:18:44.381Z,11.63
2023-04-09T07:19:44.325Z,11.68
2023-04-09T07:20:44.293Z,11.70
2023-04-09T07:21:44.234Z,11.77
2023-04-09T07:22:44.188Z,11.80
2023-04-09T07:23:44.145Z,11.85
2023-04-09T07:24:44.116Z,11.91
2023-04-09T07:25:44.059Z,11.97
2023-04-09T07:26:44.024Z,12.02
2023-04-09T07:27:43.964Z,11.96
2023-04-09T07:28:43.930Z,12.10
2023-04-09T07:29:43.942Z,12.07
2023-04-09T07:30:44.130Z,12.02
2023-04-09T07:31:43.938Z,11.88
2023-04-09T07:32:43.781Z,11.89
2023-04-09T07:33:43.698Z,11.86
2023-04-09T07:34:43.652Z,11.97
2023-04-09T07:35:43.679Z,12.00
2023-04-09T07:36:43.563Z,12.07
2023-04-09T07:37:43.528Z,11.96
2023-04-09T07:38:43.472Z,12.02
2023-04-09T07:39:43.431Z,11.99
2023-04-09T07:40:43.390Z,12.00
2023-04-09T07:41:43.374Z,11.96
2023-04-09T07:42:43.305Z,11.77
2023-04-09T07:43:43.252Z,11.73
2023-04-09T07:44:43.213Z,11.89
2023-04-09T07:45:43.172Z,11.89
2023-04-09T07:46:43.145Z,12.03
2023-04-09T07:47:43.158Z,12.02
2023-04-09T07:48:43.033Z,12.05
2023-04-09T07:49:42.992Z,12.18
2023-04-09T07:50:42.943Z,12.12
2023-04-09T07:51:42.939Z,12.18
2023-04-09T07:52:42.854Z,12.26
2023-04-09T07:53:42.810Z,12.26
2023-04-09T07:54:42.768Z,12.48
2023-04-09T07:55:42.727Z,12.50
2023-04-09T07:56:42.851Z,12.50
2023-04-09T07:57:42.663Z,12.65
2023-04-09T07:58:42.596Z,12.65
2023-04-09T07:59:42.550Z,12.48
2023-04-09T08:00:42.499Z,12.47
2023-04-09T08:01:42.579Z,12.65
2023-04-09T08:02:42.577Z,12.78
2023-04-09T08:03:42.436Z,12.81
2023-04-09T08:04:42.584Z,12.94
2023-04-09T08:05:42.280Z,13.09
2023-04-09T08:06:42.244Z,13.33
2023-04-09T08:07:42.190Z,13.43
2023-04-09T08:08:42.165Z,13.73
2023-04-09T08:09:42.124Z,13.83
2023-04-09T08:10:42.067Z,13.93
2023-04-09T08:11:42.017Z,14.04
2023-04-09T08:12:42.004Z,14.12
2023-04-09T08:13:41.931Z,14.13
2023-04-09T08:14:41.892Z,14.25
2023-04-09T08:15:41.845Z,14.07
2023-04-09T08:16:41.932Z,14.11
2023-04-09T08:17:41.804Z,14.26
2023-04-09T08:18:41.755Z,14.34
2023-04-09T08:19:42.221Z,14.58
2023-04-09T08:20:41.628Z,14.58
2023-04-09T08:21:41.586Z,14.53
2023-04-09T08:22:41.541Z,14.51
2023-04-09T08:23:41.495Z,14.66
2023-04-09T08:24:41.482Z,14.73
2023-04-09T08:25:41.415Z,14.79
2023-04-09T08:26:41.380Z,14.94
2023-04-09T08:27:41.346Z,15.17
2023-04-09T08:28:41.284Z,15.36
2023-04-09T08:29:41.264Z,15.37
2023-04-09T08:30:41.196Z,15.60
2023-04-09T08:31:41.178Z,15.80
2023-04-09T08:32:41.133Z,15.88
2023-04-09T08:33:41.067Z,15.92
2023-04-09T08:34:41.030Z,16.03
2023-04-09T08:35:41.012Z,16.18
2023-04-09T08:36:41.007Z,16.34
2023-04-09T08:37:40.899Z,16.57
2023-04-09T08:38:40.862Z,16.65
2023-04-09T08:39:40.817Z,16.82
2023-04-09T08:40:40.954Z,16.92
2023-04-09T08:41:40.737Z,16.89
2023-04-09T08:42:40.702Z,17.10
2023-04-09T08:43:53.275Z,17.16
2023-04-09T08:44:40.613Z,17.35
2023-04-09T08:45:40.629Z,17.44
2023-04-09T08:46:40.557Z,17.35
2023-04-09T08:47:40.583Z,17.30
2023-04-09T08:48:40.549Z,17.24
2023-04-09T08:49:40.409Z,17.35
2023-04-09T08:50:40.387Z,17.53
2023-04-09T08:51:40.351Z,17.65
2023-04-09T08:52:40.315Z,17.88
2023-04-09T08:53:40.259Z,18.11
2023-04-09T08:54:40.237Z,18.06
2023-04-09T08:55:40.176Z,17.91
2023-04-09T08:56:40.139Z,17.76
2023-04-09T08:57:40.099Z,17.63
2023-04-09T08:58:40.070Z,17.49
2023-04-09T08:59:40.022Z,17.37
2023-04-09T09:00:39.981Z,17.35
2023-04-09T09:01:40.026Z,17.35
2023-04-09T09:02:40.021Z,17.23
2023-04-09T09:03:39.943Z,16.95
2023-04-09T09:04:39.824Z,16.84
2023-04-09T09:05:39.786Z,16.76
2023-04-09T09:06:39.744Z,16.80
2023-04-09T09:07:39.697Z,16.76
2023-04-09T09:08:39.656Z,16.77
2023-04-09T09:09:39.610Z,16.68
2023-04-09T09:10:39.583Z,16.65
2023-04-09T09:11:39.538Z,16.57
2023-04-09T09:12:39.527Z,16.59
2023-04-09T09:13:39.446Z,16.59
2023-04-09T09:14:39.404Z,16.44
2023-04-09T09:15:39.367Z,15.96
2023-04-09T09:16:39.362Z,16.16
2023-04-09T09:17:39.308Z,16.21
2023-04-09T09:18:39.256Z,16.39
2023-04-09T09:19:39.239Z,16.68
2023-04-09T09:20:39.159Z,16.97
2023-04-09T09:21:39.132Z,17.28
2023-04-09T09:22:39.075Z,17.49
2023-04-09T09:23:39.035Z,17.91
2023-04-09T09:24:39.002Z,18.03
2023-04-09T09:25:38.971Z,18.49
2023-04-09T09:26:39.050Z,18.96
2023-04-09T09:27:38.877Z,19.19
2023-04-09T09:28:38.841Z,19.45
2023-04-09T09:29:38.809Z,19.70
2023-04-09T09:30:38.818Z,20.21
2023-04-09T09:31:38.725Z,20.70
2023-04-09T09:32:38.728Z,21.00
2023-04-09T09:33:38.652Z,21.66
2023-04-09T09:34:38.614Z,22.06
2023-04-09T09:35:38.616Z,22.36
2023-04-09T09:36:38.545Z,22.55
2023-04-09T09:37:38.501Z,22.46
2023-04-09T09:38:38.496Z,22.84
2023-04-09T09:39:38.430Z,23.13
2023-04-09T09:40:38.394Z,23.33
2023-04-09T09:41:38.364Z,23.69
2023-04-09T09:42:38.324Z,23.67
2023-04-09T09:43:38.292Z,23.54
2023-04-09T09:44:38.273Z,23.01
2023-04-09T09:45:38.214Z,23.01
2023-04-09T09:46:38.305Z,23.56
2023-04-09T09:47:38.174Z,24.09
2023-04-09T09:48:38.105Z,24.81
2023-04-09T09:49:38.067Z,25.26
2023-04-09T09:50:38.072Z,25.15
2023-04-09T09:51:37.995Z,24.94
2023-04-09T09:52:37.959Z,25.24
2023-04-09T09:53:37.937Z,25.73
2023-04-09T09:54:37.907Z,26.18
2023-04-09T09:55:37.855Z,26.61
2023-04-09T09:56:37.894Z,26.82
2023-04-09T09:57:37.807Z,26.88
2023-04-09T09:58:37.755Z,26.82
2023-04-09T09:59:37.721Z,26.46
2023-04-09T10:00:37.683Z,26.16
2023-04-09T10:01:37.824Z,26.04
2023-04-09T10:02:37.774Z,26.16
2023-04-09T10:03:37.632Z,26.15
2023-04-09T10:04:37.573Z,26.24
2023-04-09T10:05:37.562Z,26.61
2023-04-09T10:06:37.473Z,26.74
2023-04-09T10:07:37.445Z,27.11
2023-04-09T10:08:37.407Z,27.61
2023-04-09T10:09:37.374Z,28.12
2023-04-09T10:10:37.339Z,28.13
2023-04-09T10:11:37.317Z,28.00
2023-04-09T10:12:37.275Z,28.19
2023-04-09T10:13:37.263Z,28.23
2023-04-09T10:14:37.207Z,28.45
2023-04-09T10:15:37.185Z,28.43
2023-04-09T10:16:37.166Z,28.70
2023-04-09T10:17:37.128Z,29.13
2023-04-09T10:18:37.069Z,29.31
2023-04-09T10:19:37.060Z,29.52
2023-04-09T10:20:37.008Z,29.74
2023-04-09T10:21:37.078Z,30.10
2023-04-09T10:22:36.943Z,30.46
2023-04-09T10:23:36.910Z,30.85
2023-04-09T10:24:36.881Z,30.44
2023-04-09T10:25:36.870Z,30.17
2023-04-09T10:26:36.814Z,30.16
2023-04-09T10:27:36.824Z,30.43
2023-04-09T10:28:36.765Z,30.76
2023-04-09T10:29:36.726Z,30.65
2023-04-09T10:30:36.756Z,30.80
2023-04-09T10:31:36.775Z,30.91
2023-04-09T10:32:36.630Z,30.51
2023-04-09T10:33:36.597Z,29.89
2023-04-09T10:34:36.574Z,29.30
2023-04-09T10:35:36.547Z,28.55
2023-04-09T10:36:36.504Z,27.30
2023-04-09T10:37:36.490Z,26.70
2023-04-09T10:38:36.444Z,26.13
2023-04-09T10:39:36.416Z,25.54
2023-04-09T10:40:36.376Z,25.34
2023-04-09T10:41:36.342Z,25.07
2023-04-09T10:42:36.308Z,24.51
2023-04-09T10:43:36.286Z,24.31
2023-04-09T10:44:36.240Z,24.21
2023-04-09T10:45:36.229Z,23.92
2023-04-09T10:46:36.251Z,23.96
2023-04-09T10:47:36.161Z,24.14
2023-04-09T10:48:36.106Z,24.79
2023-04-09T10:49:36.065Z,25.07
2023-04-09T10:50:36.032Z,25.55
2023-04-09T10:51:36.041Z,25.93
2023-04-09T10:52:35.963Z,26.39
2023-04-09T10:53:35.930Z,26.78
2023-04-09T10:54:35.903Z,27.38
2023-04-09T10:55:35.861Z,27.86
2023-04-09T10:56:35.824Z,28.40
2023-04-09T10:57:35.964Z,28.90
2023-04-09T10:58:35.757Z,29.28
2023-04-09T10:59:35.727Z,29.62
2023-04-09T11:00:35.694Z,30.06
2023-04-09T11:01:35.722Z,30.24
2023-04-09T11:02:35.687Z,30.17
2023-04-09T11:03:35.638Z,30.17
2023-04-09T11:04:35.585Z,29.94
2023-04-09T11:05:35.546Z,29.96
2023-04-09T11:06:35.502Z,29.98
2023-04-09T11:07:35.493Z,30.36
2023-04-09T11:08:35.461Z,30.63
2023-04-09T11:09:35.404Z,30.46
2023-04-09T11:10:35.387Z,30.11
2023-04-09T11:11:35.356Z,30.59
2023-04-09T11:12:35.315Z,31.13
2023-04-09T11:13:35.312Z,31.57
2023-04-09T11:14:35.254Z,31.79
2023-04-09T11:15:35.237Z,31.39
2023-04-09T11:16:35.223Z,30.27
2023-04-09T11:17:35.178Z,29.77
2023-04-09T11:18:35.130Z,29.40
2023-04-09T11:19:35.276Z,29.34
2023-04-09T11:20:35.085Z,29.34
2023-04-09T11:21:35.887Z,29.64
2023-04-09T11:22:35.006Z,29.81
2023-04-09T11:23:34.969Z,29.31
2023-04-09T11:24:34.941Z,29.59
2023-04-09T11:25:34.922Z,29.57
2023-04-09T11:26:34.880Z,29.99
2023-04-09T11:27:34.846Z,30.43
2023-04-09T11:28:34.824Z,30.70
2023-04-09T11:29:34.783Z,30.49
2023-04-09T11:30:34.753Z,30.61
2023-04-09T11:31:34.786Z,30.23
2023-04-09T11:32:34.774Z,30.20
2023-04-09T11:33:34.772Z,30.62
2023-04-09T11:34:34.640Z,31.18
2023-04-09T11:35:34.619Z,31.69
2023-04-09T11:36:34.593Z,31.89
2023-04-09T11:37:34.540Z,31.98
2023-04-09T11:38:34.510Z,31.92
2023-04-09T11:39:34.479Z,31.62
2023-04-09T11:40:34.452Z,30.85
2023-04-09T11:41:34.422Z,29.86
2023-04-09T11:42:34.420Z,29.49
2023-04-09T11:43:34.357Z,29.24
2023-04-09T11:44:34.327Z,28.78
2023-04-09T11:45:34.314Z,28.04
2023-04-09T11:46:34.325Z,27.85
2023-04-09T11:47:34.271Z,28.10
2023-04-09T11:48:34.236Z,28.47
2023-04-09T11:49:34.166Z,28.53
2023-04-09T11:50:34.137Z,28.83
2023-04-09T11:51:34.103Z,29.46
2023-04-09T11:52:34.074Z,29.68
2023-04-09T11:53:34.054Z,30.14
2023-04-09T11:54:34.045Z,30.44
2023-04-09T11:55:33.986Z,30.70
2023-04-09T11:56:33.988Z,30.92
2023-04-09T11:57:33.923Z,31.05
2023-04-09T11:58:33.891Z,31.36
2023-04-09T11:59:33.872Z,31.63
2023-04-09T12:00:33.835Z,32.01
2023-04-09T12:01:34.022Z,32.29
2023-04-09T12:02:33.871Z,32.39
2023-04-09T12:03:34.031Z,32.56
2023-04-09T12:04:33.770Z,32.68
2023-04-09T12:05:33.691Z,32.68
2023-04-09T12:06:33.649Z,32.73
2023-04-09T12:07:33.646Z,32.54
2023-04-09T12:08:33.586Z,32.00
2023-04-09T12:09:33.560Z,31.04
2023-04-09T12:10:33.539Z,30.46
2023-04-09T12:11:33.505Z,29.96
2023-04-09T12:12:33.467Z,29.74
2023-04-09T12:13:33.479Z,29.77
2023-04-09T12:14:33.406Z,29.86
2023-04-09T12:15:33.382Z,30.26
2023-04-09T12:16:33.397Z,30.44
2023-04-09T12:17:41.606Z,30.76
2023-04-09T12:18:33.553Z,31.39
2023-04-09T12:19:33.276Z,31.59
2023-04-09T12:20:33.368Z,31.78
2023-04-09T12:21:33.193Z,31.48
2023-04-09T12:22:33.383Z,31.39
2023-04-09T12:23:33.134Z,31.64
2023-04-09T12:24:33.396Z,31.64
2023-04-09T12:25:33.247Z,31.67
2023-04-09T12:26:33.205Z,31.85
2023-04-09T12:27:33.941Z,31.67
2023-04-09T12:28:32.977Z,31.72
2023-04-09T12:29:32.951Z,31.73
2023-04-09T12:30:33.237Z,31.23
2023-04-09T12:31:32.936Z,31.14
2023-04-09T12:32:33.078Z,30.71
2023-04-09T12:33:33.107Z,30.21
2023-04-09T12:34:33.057Z,29.84
2023-04-09T12:35:32.792Z,29.76
2023-04-09T12:36:32.866Z,29.37
2023-04-09T12:37:32.740Z,29.34
2023-04-09T12:38:32.902Z,29.37
2023-04-09T12:39:34.287Z,29.61
2023-04-09T12:40:32.911Z,29.25
2023-04-09T12:41:32.584Z,28.77
2023-04-09T12:42:32.915Z,28.40
2023-04-09T12:43:32.618Z,28.08
2023-04-09T12:44:32.487Z,27.72
2023-04-09T12:45:32.477Z,27.37
2023-04-09T12:46:32.875Z,27.20
2023-04-09T12:47:32.426Z,27.29
2023-04-09T12:48:32.546Z,27.67
2023-04-09T12:49:32.602Z,28.16
2023-04-09T12:50:32.561Z,28.50
2023-04-09T12:51:32.258Z,28.82
2023-04-09T12:52:32.372Z,29.21
2023-04-09T12:53:32.199Z,29.21
2023-04-09T12:54:32.390Z,29.64
2023-04-09T12:55:32.309Z,29.96
2023-04-09T12:56:32.400Z,30.16
2023-04-09T12:57:32.076Z,29.96
2023-04-09T12:58:32.219Z,29.73
2023-04-09T12:59:32.011Z,30.20
2023-04-09T13:00:31.971Z,30.40
2023-04-09T13:01:32.460Z,29.96
2023-04-09T13:02:32.101Z,29.61
2023-04-09T13:03:31.984Z,28.50
2023-04-09T13:04:32.182Z,28.08
2023-04-09T13:05:31.845Z,27.47
2023-04-09T13:06:32.064Z,26.91
2023-04-09T13:07:31.758Z,26.41
2023-04-09T13:08:31.874Z,26.18